Aviation Digital Data Service (ADDS)

Output produced by METARs form (1445 UTC 19 July 2019)
found at http://aviationweather.gov/metar/data/
 
METAR text: KAVP 191354Z 22008KT 10SM CLR 28/22 A2992 RMK AO2 SLP122 T02830222
Conditions at: KAVP (AVOCA/WILKES B. , PA, US) observed 1354 UTC 19 July 2019
Temperature: 28.3°C (83°F)
Dewpoint: 22.2°C (72°F) [RH = 70%]
Pressure (altimeter): 29.92 inches Hg (1013.3 mb)
[Sea-level pressure: 1012.2 mb]
Winds: from the SW (220 degrees) at 9 MPH (8 knots; 4.1 m/s)
Visibility: 10 or more miles (16+ km)
Ceiling: at least 12,000 feet AGL
Clouds: sky clear below 12,000 feet AGL
Weather: no significant weather observed at this time

METAR text: KAVP 191336Z 24008KT 10SM CLR 28/22 A2993 RMK AO2 T02780222
Conditions at: KAVP (AVOCA/WILKES B. , PA, US) observed 1336 UTC 19 July 2019
Temperature: 27.8°C (82°F)
Dewpoint: 22.2°C (72°F) [RH = 72%]
Pressure (altimeter): 29.93 inches Hg (1013.6 mb)
Winds: from the WSW (240 degrees) at 9 MPH (8 knots; 4.1 m/s)
Visibility: 10 or more miles (16+ km)
Ceiling: at least 12,000 feet AGL
Clouds: sky clear below 12,000 feet AGL
Weather: no significant weather observed at this time

METAR text: KAVP 191254Z 22006KT 8SM FEW013 26/23 A2994 RMK AO2 SLP127 T02610228
Conditions at: KAVP (AVOCA/WILKES B. , PA, US) observed 1254 UTC 19 July 2019
Temperature: 26.1°C (79°F)
Dewpoint: 22.8°C (73°F) [RH = 82%]
Pressure (altimeter): 29.94 inches Hg (1014.0 mb)
[Sea-level pressure: 1012.7 mb]
Winds: from the SW (220 degrees) at 7 MPH (6 knots; 3.1 m/s)
Visibility: 8 miles (13 km)
Ceiling: at least 12,000 feet AGL
Clouds: few clouds at 1300 feet AGL
Weather: no significant weather observed at this time

Forecast for: KAVP (AVOCA/WILKES B. , PA, US)
Text: KAVP 191122Z 1912/2012 VRB03KT P6SM SCT012
Forecast period: 1200 to 1400 UTC 19 July 2019
Forecast type: FROM: standard forecast or significant change
Winds: variable direction winds at 3 MPH (3 knots; 1.5 m/s)
Visibility: 6 or more miles 10+ km)
Ceiling: at least 12,000 feet AGL
Clouds: scattered clouds at 1200 feet AGL
Weather: no significant weather forecast for this period
Text: FM191400 23007KT P6SM FEW040 SCT200
Forecast period: 1400 UTC 19 July 2019 to 0000 UTC 20 July 2019
Forecast type: FROM: standard forecast or significant change
Winds: from the SW (230 degrees) at 8 MPH (7 knots; 3.6 m/s)
Visibility: 6 or more miles 10+ km)
Ceiling: at least 12,000 feet AGL
Clouds: few clouds at 4000 feet AGL
scattered clouds at 20000 feet AGL
Weather: no significant weather forecast for this period
Text: FM200000 24004KT P6SM BKN050
Forecast period: 0000 to 1200 UTC 20 July 2019
Forecast type: FROM: standard forecast or significant change
Winds: from the WSW (240 degrees) at 5 MPH (4 knots; 2.1 m/s)
Visibility: 6 or more miles 10+ km)
Ceiling: 5000 feet AGL
Clouds: broken clouds at 5000 feet AGL
Weather: no significant weather forecast for this period